Have a Safe July 4th! 

Flight Track Log - Related Links

Times and Time Zones

All times are in EDT time to prevent confusion due to time zone crossing. See the NKS331 flight status page for this flight to view local times or setup timezone preferences in your user account.

Time Position Orientation Groundspeed Altitude Reporting Facility
EDT Latitude Longitude Course Direction KTS MPH feet Rate Location/Type
Thu 11:57:29 PM 40.7630 -73.8440 138° Southeast 156 180 800  Level FlightAware ADS-B
Thu 11:57:44 PM 40.7530 -73.8390 159° South 164 189 1,200 1,400 Climbing FlightAware ADS-B
Thu 11:57:59 PM 40.7420 -73.8310 151° Southeast 186 214 1,500 1,200 Climbing FlightAware ADS-B
Thu 11:58:14 PM 40.7360 -73.8160 118° Southeast 207 238 1,800 1,350 Climbing FlightAware ADS-B
Thu 11:58:39 PM 40.7450 -73.7860 68° East 224 258 2,400 1,800 Climbing FlightAware ADS-B
Thu 11:58:54 PM 40.7580 -73.7740 35° Northeast 231 266 3,000 2,533 Climbing FlightAware ADS-B
Thu 11:59:24 PM 40.7880 -73.7550 26° Northeast 244 281 4,300 2,795 Climbing FlightAware ADS-B
Fri 12:00:07 AM 40.8318 -73.7844 333° Northwest 258 297 6,400 3,097 Climbing FlightAware ADS-B
Fri 12:00:26 AM 40.8461 -73.8077 309° West 259 298 7,500 3,073 Climbing FlightAware ADS-B
Fri 12:00:48 AM 40.8628 -73.8344 310° West 264 304 8,500 2,769 Climbing FlightAware ADS-B
Fri 12:01:05 AM 40.8761 -73.8557 310° West 271 312 9,300 2,426 Climbing FlightAware ADS-B
Fri 12:01:35 AM 40.9014 -73.8955 310° West 292 336 10,400 1,615 Climbing FlightAware ADS-B
Fri 12:01:57 AM 40.9218 -73.9271 311° West 321 369 10,700 1,000 Climbing FlightAware ADS-B
Fri 12:02:05 AM 40.9297 -73.9394 310° West 330 380 10,900 2,129 Climbing FlightAware ADS-B
Fri 12:02:28 AM 40.9529 -73.9752 311° West 338 389 11,800 2,438 Climbing FlightAware ADS-B
Fri 12:02:37 AM 40.9620 -73.9891 311° West 340 391 12,200 2,710 Climbing FlightAware ADS-B
Fri 12:02:59 AM 40.9850 -74.0237 311° West 342 394 13,200 2,600 Climbing FlightAware ADS-B
Fri 12:03:07 AM 40.9931 -74.0361 311° West 345 397 13,500 2,400 Climbing FlightAware ADS-B
Fri 12:03:09 AM 40.9953 -74.0397 309° West 346 398 13,600 2,000 Climbing FlightAware ADS-B
Fri 12:03:13 AM 40.9991 -74.0465 307° West 345 397 13,700 2,400 Climbing FlightAware ADS-B
Fri 12:03:14 AM 40.9999 -74.0482 302° West 345 397 13,800 2,400 Climbing FlightAware ADS-B
Fri 12:03:18 AM 41.0031 -74.0558 299° West 343 395 13,900 2,571 Climbing FlightAware ADS-B
Fri 12:03:21 AM 41.0054 -74.0627 294° West 341 392 14,100 3,600 Climbing FlightAware ADS-B
Fri 12:03:23 AM 41.0064 -74.0662 291° West 341 392 14,200 2,400 Climbing FlightAware ADS-B
Fri 12:03:51 AM 41.0187 -74.1227 286° West 343 395 15,300 2,323 Climbing FlightAware ADS-B
Fri 12:03:54 AM 41.0196 -74.1269 286° West 343 395 15,400 774 Climbing FlightAware ADS-B
Fri 12:04:22 AM 41.0314 -74.1841 285° West 343 395 15,700 600 Climbing FlightAware ADS-B
Fri 12:04:24 AM 41.0322 -74.1882 285° West 343 395 15,700  Level FlightAware ADS-B
Fri 12:04:52 AM 41.0441 -74.2457 285° West 344 396 15,700  Level FlightAware ADS-B
Fri 12:04:54 AM 41.0449 -74.2499 284° West 344 396 15,700  Level FlightAware ADS-B
Fri 12:05:25 AM 41.0576 -74.3111 285° West 342 394 15,700  Level FlightAware ADS-B
Fri 12:05:38 AM 41.0630 -74.3374 285° West 344 396 15,700  Level FlightAware ADS-B
Fri 12:05:55 AM 41.0702 -74.3724 285° West 342 394 15,700 766 Level FlightAware ADS-B
Fri 12:06:25 AM 41.0829 -74.4341 285° West 344 396 16,300 1,579 Climbing FlightAware ADS-B
Fri 12:06:52 AM 41.0941 -74.4881 285° West 350 403 17,200 1,935 Climbing FlightAware ADS-B
Fri 12:06:56 AM 41.0959 -74.4967 286° West 351 404 17,300 1,886 Climbing FlightAware ADS-B
Fri 12:07:27 AM 41.1090 -74.5607 285° West 358 412 18,300 2,066 Climbing FlightAware ADS-B
Fri 12:07:57 AM 41.1220 -74.6245 285° West 362 417 19,400 2,057 Climbing FlightAware ADS-B
Fri 12:08:02 AM 41.1245 -74.6367 285° West 359 413 19,500 2,182 Climbing FlightAware ADS-B
Fri 12:08:08 AM 41.1271 -74.6487 286° West 364 419 19,800 2,250 Climbing FlightAware ADS-B
Fri 12:08:26 AM 41.1371 -74.6863 289° West 366 421 20,400 1,875 Climbing FlightAware ADS-B
Fri 12:08:40 AM 41.1467 -74.7158 293° West 370 426 20,800 1,714 Climbing FlightAware ADS-B
Fri 12:08:47 AM 41.1518 -74.7294 296° West 373 429 21,000 1,622 Climbing FlightAware ADS-B
Fri 12:09:17 AM 41.1776 -74.7894 300° West 380 437 21,800 1,600 Climbing FlightAware ADS-B
Fri 12:09:47 AM 41.2044 -74.8506 300° West 384 442 22,600 1,600 Climbing FlightAware ADS-B
Fri 12:10:17 AM 41.2310 -74.9120 300° West 387 445 23,400 1,500 Climbing FlightAware ADS-B
Fri 12:10:47 AM 41.2586 -74.9757 300° West 392 451 24,100 1,574 Climbing FlightAware ADS-B
Fri 12:11:18 AM 41.2860 -75.0389 300° West 393 452 25,000 1,475 Climbing FlightAware ADS-B
Fri 12:11:48 AM 41.3138 -75.1035 300° West 400 460 25,600 1,377 Climbing FlightAware ADS-B
Fri 12:12:19 AM 41.3419 -75.1687 300° West 396 456 26,400 1,279 Climbing FlightAware ADS-B
Fri 12:12:49 AM 41.3695 -75.2330 300° West 403 464 26,900 1,161 Climbing FlightAware ADS-B
Fri 12:13:21 AM 41.3993 -75.3026 300° West 406 467 27,600 1,333 Climbing FlightAware ADS-B
Fri 12:13:52 AM 41.4276 -75.3685 300° West 408 470 28,300 1,279 Climbing FlightAware ADS-B
Fri 12:14:22 AM 41.4559 -75.4348 300° West 411 473 28,900 1,174 Climbing FlightAware ADS-B
Fri 12:14:38 AM 41.4706 -75.4708 299° West 412 474 29,200 1,174 Climbing FlightAware ADS-B
Fri 12:15:08 AM 41.4929 -75.5407 293° West 409 471 29,800 1,279 Climbing FlightAware ADS-B
Fri 12:15:39 AM 41.5133 -75.6126 291° West 409 471 30,500 1,082 Climbing FlightAware ADS-B
Fri 12:16:09 AM 41.5340 -75.6841 291° West 415 478 30,900 1,279 Climbing FlightAware ADS-B
Fri 12:16:40 AM 41.5546 -75.7557 291° West 407 468 31,800 1,475 Climbing FlightAware ADS-B
Fri 12:17:10 AM 41.5748 -75.8264 291° West 408 470 32,400 1,000 Climbing FlightAware ADS-B
Fri 12:17:40 AM 41.5951 -75.8980 291° West 414 476 32,800 1,200 Climbing FlightAware ADS-B
Fri 12:18:10 AM 41.6155 -75.9700 291° West 405 466 33,600 1,377 Climbing FlightAware ADS-B
Fri 12:18:41 AM 41.6353 -76.0402 291° West 403 464 34,200 787 Climbing FlightAware ADS-B
Fri 12:19:11 AM 41.6554 -76.1118 291° West 412 474 34,400 787 Climbing FlightAware ADS-B
Fri 12:19:42 AM 41.6764 -76.1861 291° West 410 472 35,000 984 Climbing FlightAware ADS-B
Fri 12:20:12 AM 41.6963 -76.2572 291° West 410 472 35,400 885 Climbing FlightAware ADS-B
Fri 12:20:43 AM 41.7165 -76.3290 291° West 407 468 35,900 529 Climbing FlightAware ADS-B
Fri 12:21:20 AM 41.7409 -76.4164 291° West 414 476 36,000 90 Climbing FlightAware ADS-B
Fri 12:21:50 AM 41.7610 -76.4891 290° West 417 480 36,000  Level FlightAware ADS-B
Fri 12:22:23 AM 41.7830 -76.5687 290° West 419 482 36,000  Level FlightAware ADS-B
Fri 12:22:54 AM 41.8044 -76.6474 290° West 428 493 36,000  Level FlightAware ADS-B
Fri 12:23:24 AM 41.8180 -76.6950 291° West 432 497 36,000 85 Level FlightAware ADS-B
Fri 12:24:05 AM 41.8533 -76.8246 290° West 430 495 36,100  Climbing FlightAware ADS-B
Fri 12:24:49 AM 41.8760 -76.9090 290° West 419 482 36,000 -71 Descending FlightAware ADS-B
Fri 12:25:29 AM 41.9020 -77.0040 290° West 412 474 36,000  Level FlightAware ADS-B
Fri 12:26:14 AM 41.9310 -77.1120 290° West 426 490 36,000  Level FlightAware ADS-B
Fri 12:26:54 AM 41.9590 -77.2150 290° West 422 486 36,000  Level FlightAware ADS-B
Fri 12:27:34 AM 41.9850 -77.3090 290° West 416 479 36,000  Level FlightAware ADS-B
Fri 12:28:19 AM 42.0140 -77.4180 290° West 412 474 36,000  Level FlightAware ADS-B
Fri 12:28:59 AM 42.0380 -77.5120 289° West 409 471 36,000  Level FlightAware ADS-B
Fri 12:29:39 AM 42.0430 -77.6160 274° West 412 474 36,000  Level FlightAware ADS-B
Fri 12:30:24 AM 42.0480 -77.7330 273° West 413 475 36,000  Level FlightAware ADS-B
Fri 12:31:04 AM 42.0520 -77.8340 273° West 415 478 36,000  Level FlightAware ADS-B
Fri 12:31:49 AM 42.0560 -77.9500 273° West 417 480 36,000 71 Level FlightAware ADS-B
Fri 12:32:29 AM 42.0600 -78.0510 273° West 417 480 36,100  Climbing FlightAware ADS-B
Fri 12:33:14 AM 42.0640 -78.1700 273° West 415 478 36,000 -71 Descending FlightAware ADS-B
Fri 12:33:54 AM 42.0670 -78.2700 272° West 414 476 36,000  Level FlightAware ADS-B
Fri 12:34:34 AM 42.0700 -78.3650 272° West 414 476 36,000  Level FlightAware ADS-B
Fri 12:35:19 AM 42.0740 -78.4840 273° West 413 475 36,000  Level FlightAware ADS-B
Fri 12:35:59 AM 42.0770 -78.5870 272° West 415 478 36,000  Level FlightAware ADS-B
Fri 12:36:44 AM 42.0800 -78.6990 272° West 415 478 36,000  Level FlightAware ADS-B
Fri 12:37:24 AM 42.0830 -78.7990 272° West 415 478 36,000  Level FlightAware ADS-B
Fri 12:38:04 AM 42.0860 -78.9060 272° West 415 478 36,000  Level FlightAware ADS-B
Fri 12:38:49 AM 42.0900 -79.0190 273° West 415 478 36,000  Level FlightAware ADS-B
Fri 12:39:29 AM 42.0920 -79.1220 272° West 414 476 36,000  Level FlightAware ADS-B
Fri 12:40:14 AM 42.0950 -79.2330 272° West 410 472 36,000  Level FlightAware ADS-B
Fri 12:40:54 AM 42.0980 -79.3400 272° West 407 468 36,000  Level FlightAware ADS-B
Fri 12:41:39 AM 42.1010 -79.4490 272° West 405 466 36,000  Level FlightAware ADS-B
Fri 12:42:19 AM 42.1030 -79.5510 272° West 404 465 36,000  Level FlightAware ADS-B
Fri 12:42:59 AM 42.1050 -79.6500 272° West 405 466 36,000  Level FlightAware ADS-B
Fri 12:43:39 AM 42.1070 -79.7510 272° West 405 466 36,000  Level FlightAware ADS-B
Fri 12:44:24 AM 42.1100 -79.8610 272° West 403 464 36,000  Level FlightAware ADS-B
Fri 12:45:04 AM 42.1110 -79.9540 271° West 402 463 36,000  Level FlightAware ADS-B
Fri 12:45:49 AM 42.1140 -80.0760 272° West 403 464 36,000  Level FlightAware ADS-B
Fri 12:46:29 AM 42.1150 -80.1810 271° West 405 466 36,000  Level FlightAware ADS-B
Fri 12:47:09 AM 42.1170 -80.2820 272° West 406 467 36,000  Level FlightAware ADS-B
Fri 12:47:54 AM 42.1190 -80.3980 271° West 407 468 36,000  Level FlightAware ADS-B
Fri 12:48:34 AM 42.1210 -80.4940 272° West 408 470 36,000  Level FlightAware ADS-B
Fri 12:49:19 AM 42.1220 -80.6100 271° West 407 468 36,000  Level FlightAware ADS-B
Fri 12:49:59 AM 42.1230 -80.7130 271° West 405 466 36,000  Level FlightAware ADS-B
Fri 12:50:44 AM 42.1250 -80.8250 271° West 401 461 36,000  Level FlightAware ADS-B
Fri 12:51:24 AM 42.1260 -80.9250 271° West 398 458 36,000  Level FlightAware ADS-B
Fri 12:52:04 AM 42.1270 -81.0230 271° West 394 453 36,000  Level FlightAware ADS-B
Fri 12:52:49 AM 42.1280 -81.1300 271° West 389 448 36,000  Level FlightAware ADS-B
Fri 12:53:29 AM 42.1290 -81.2260 271° West 386 444 36,000  Level FlightAware ADS-B
Fri 12:54:09 AM 42.1290 -81.3140 270° West 384 442 36,000 -71 Level FlightAware ADS-B
Fri 12:54:54 AM 42.1300 -81.4590 271° West 385 443 35,900  Descending FlightAware ADS-B
Fri 12:55:34 AM 42.1310 -81.5600 271° West 388 447 36,000 71 Climbing FlightAware ADS-B
Fri 12:56:19 AM 42.1310 -81.6660 270° West 388 447 36,000  Level FlightAware ADS-B
Fri 12:56:59 AM 42.1320 -81.7650 271° West 388 447 36,000  Level FlightAware ADS-B
Fri 12:57:44 AM 42.1320 -81.8700 270° West 388 447 36,000  Level FlightAware ADS-B
Fri 12:58:24 AM 42.1320 -81.9690 270° West 390 449 36,000  Level FlightAware ADS-B
Fri 12:59:04 AM 42.1320 -82.0580 270° West 391 450 36,000  Level FlightAware ADS-B
Fri 12:59:39 AM 42.1320 -82.1430 270° West 392 451 36,000  Level FlightAware ADS-B
Fri 01:00:39 AM 42.1320 -82.2940 270° West 390 449 36,000  Level FlightAware ADS-B
Fri 01:01:19 AM 42.1320 -82.3910 270° West 389 448 36,000  Level FlightAware ADS-B
Fri 01:01:59 AM 42.1320 -82.4880 270° West 389 448 36,000  Level FlightAware ADS-B
Fri 01:02:49 AM 42.1320 -82.5500 270° West 389 448 36,000  Level FlightAware ADS-B
Fri 01:03:34 AM 42.1310 -82.6460 269° West 389 448 36,000  Level FlightAware ADS-B
Fri 01:04:14 AM 42.1310 -82.7530 270° West 387 445 36,000  Level FlightAware ADS-B
Fri 01:04:54 AM 42.1310 -82.8430 270° West 384 442 36,000  Level FlightAware ADS-B
Fri 01:05:34 AM 42.1300 -82.9460 269° West 383 441 36,000  Level FlightAware ADS-B
Fri 01:06:14 AM 42.1290 -83.0380 269° West 382 440 36,000  Level FlightAware ADS-B
Fri 01:07:04 AM 42.1280 -83.1540 269° West 382 440 36,000  Level FlightAware ADS-B
Fri 01:07:44 AM 42.1270 -83.2440 269° West 381 438 36,000  Level FlightAware ADS-B
Fri 01:08:24 AM 42.1260 -83.3590 269° West 381 438 36,000  Level FlightAware ADS-B
Fri 01:09:04 AM 42.1250 -83.4550 269° West 381 438 36,000  Level FlightAware ADS-B
Fri 01:09:59 AM 42.1240 -83.5660 269° West 382 440 36,000  Level FlightAware ADS-B
Fri 01:10:39 AM 42.1220 -83.6720 269° West 381 438 36,000  Level FlightAware ADS-B
Fri 01:11:29 AM 42.1210 -83.7740 269° West 380 437 36,000  Level FlightAware ADS-B
Fri 01:12:09 AM 42.1180 -83.9380 269° West 376 433 36,000  Level FlightAware ADS-B
Fri 01:12:54 AM 42.1170 -84.0400 269° West 375 432 36,000  Level FlightAware ADS-B
Fri 01:13:34 AM 42.1150 -84.1380 268° West 374 430 36,000  Level FlightAware ADS-B
Fri 01:14:14 AM 42.1140 -84.2290 269° West 374 430 36,000  Level FlightAware ADS-B
Fri 01:14:59 AM 42.1120 -84.3330 269° West 375 432 36,000  Level FlightAware ADS-B
Fri 01:15:39 AM 42.1100 -84.4280 268° West 374 430 36,000  Level FlightAware ADS-B
Fri 01:16:24 AM 42.1080 -84.5290 269° West 374 430 36,000  Level FlightAware ADS-B
Fri 01:17:04 AM 42.1060 -84.6260 268° West 372 428 36,000  Level FlightAware ADS-B
Fri 01:17:44 AM 42.1040 -84.7190 268° West 371 427 36,000  Level FlightAware ADS-B
Fri 01:18:29 AM 42.1010 -84.8200 268° West 372 428 36,000  Level FlightAware ADS-B
Fri 01:19:09 AM 42.0990 -84.9110 268° West 372 428 36,000  Level FlightAware ADS-B
Fri 01:19:49 AM 42.0970 -85.0050 268° West 374 430 36,000  Level FlightAware ADS-B
Fri 01:20:34 AM 42.0940 -85.1120 268° West 374 430 36,000  Level FlightAware ADS-B
Fri 01:21:14 AM 42.0920 -85.2030 268° West 374 430 36,000 -494 Level FlightAware ADS-B
Fri 01:21:59 AM 42.0890 -85.3050 268° West 369 425 35,300 -1,129 Descending FlightAware ADS-B
Fri 01:22:39 AM 42.0860 -85.3970 268° West 369 425 34,400 -1,500 Descending FlightAware ADS-B
Fri 01:23:19 AM 42.0840 -85.4920 268° West 378 435 33,300 -1,624 Descending FlightAware ADS-B
Fri 01:24:04 AM 42.0810 -85.6000 268° West 387 445 32,100 -1,624 Descending FlightAware ADS-B
Fri 01:24:44 AM 42.0780 -85.6960 268° West 390 449 31,000 -1,694 Descending FlightAware ADS-B
Fri 01:25:29 AM 42.0740 -85.8030 267° West 389 448 29,700 -1,906 Descending FlightAware ADS-B
Fri 01:26:09 AM 42.0710 -85.9010 268° West 400 460 28,300 -2,025 Descending FlightAware ADS-B
Fri 01:26:49 AM 42.0680 -86.0020 268° West 408 470 27,000 -1,976 Descending FlightAware ADS-B
Fri 01:27:34 AM 42.0640 -86.1160 267° West 401 461 25,500 -1,976 Descending FlightAware ADS-B
Fri 01:28:14 AM 42.0600 -86.2150 267° West 393 452 24,200 -1,976 Descending FlightAware ADS-B
Fri 01:28:59 AM 42.0560 -86.3210 267° West 385 443 22,700 -2,047 Descending FlightAware ADS-B
Fri 01:29:39 AM 42.0530 -86.4160 268° West 382 440 21,300 -2,100 Descending FlightAware ADS-B
Fri 01:30:19 AM 42.0490 -86.5120 267° West 379 436 19,900 -2,047 Descending FlightAware ADS-B
Fri 01:31:04 AM 42.0450 -86.6170 267° West 369 425 18,400 -2,047 Descending FlightAware ADS-B
Fri 01:31:44 AM 42.0410 -86.7080 267° West 361 415 17,000 -2,047 Descending FlightAware ADS-B
Fri 01:32:29 AM 42.0370 -86.8050 267° West 350 403 15,500 -2,267 Descending FlightAware ADS-B
Fri 01:33:14 AM 42.0190 -86.9020 256° West 361 415 13,600 -2,400 Descending FlightAware ADS-B
Fri 01:33:54 AM 41.9860 -86.9800 240° Southwest 357 411 12,100 -2,250 Descending FlightAware ADS-B
Fri 01:34:34 AM 41.9680 -87.0610 253° West 335 386 10,600 -1,765 Descending FlightAware ADS-B
Fri 01:35:19 AM 41.9680 -87.1490 270° West 305 351 9,600 -857 Descending FlightAware ADS-B
Fri 01:35:44 AM 41.9680 -87.1960 270° West 283 326 9,600 -109 Level FlightAware ADS-B
Fri 01:36:14 AM 41.9680 -87.2410 270° West 259 298 9,500 -900 Descending FlightAware ADS-B
Fri 01:36:44 AM 41.9680 -87.2900 270° West 256 295 8,700 -1,636 Descending FlightAware ADS-B
Fri 01:37:09 AM 41.9680 -87.3310 270° West 257 296 8,000 -1,560 Descending FlightAware ADS-B
Fri 01:37:34 AM 41.9690 -87.3730 272° West 252 290 7,400 -1,091 Descending FlightAware ADS-B
Fri 01:38:04 AM 41.9690 -87.4170 270° West 242 278 7,000 -900 Descending FlightAware ADS-B
Fri 01:38:34 AM 41.9690 -87.4620 270° West 229 264 6,500 -982 Descending FlightAware ADS-B
Fri 01:38:59 AM 41.9690 -87.4950 270° West 222 255 6,100 -1,091 Descending FlightAware ADS-B
Fri 01:39:29 AM 41.9690 -87.5350 270° West 214 246 5,500 -1,300 Descending FlightAware ADS-B
Fri 01:39:59 AM 41.9690 -87.5740 270° West 204 235 4,800 -1,320 Descending FlightAware ADS-B
Fri 01:40:19 AM 41.9690 -87.5990 270° West 195 224 4,400 -982 Descending FlightAware ADS-B
Fri 01:40:54 AM 41.9690 -87.6400 270° West 175 201 3,900 -923 Descending FlightAware ADS-B
Fri 01:41:24 AM 41.9690 -87.6710 270° West 168 193 3,400 -1,050 Descending FlightAware ADS-B
Fri 01:41:34 AM 41.9690 -87.6810 270° West 166 191 3,200 -873 Descending FlightAware ADS-B
Fri 01:42:19 AM 41.9690 -87.7250 270° West 154 177 2,600 -771 Descending FlightAware ADS-B
Fri 01:42:44 AM 41.9690 -87.7470 270° West 144 166 2,300 -764 Descending FlightAware ADS-B
Fri 01:43:14 AM 41.9690 -87.7730 270° West 136 157 1,900 -700 Descending FlightAware ADS-B
Fri 01:43:44 AM 41.9690 -87.7980 270° West 136 157 1,600 -667 Descending FlightAware ADS-B
Fri 01:43:59 AM 41.9690 -87.8100 270° West 136 157 1,400 -750 Descending FlightAware ADS-B
Fri 01:44:24 AM 41.9690 -87.8320 270° West 136 157 1,100 -800 Descending FlightAware ADS-B
Fri 01:44:44 AM 41.9690 -87.8480 270° West 137 158 800 -800 Descending FlightAware ADS-B
Fri 01:45:09 AM 41.9690 -87.8700 270° West 137 158 500 -720 Descending FlightAware ADS-B
Fri 01:45:34 AM 41.9690 -87.8900 270° West 137 158 200 -720 Descending FlightAware ADS-B

Login

Don't have an account? Register now (free) for customized features, flight alerts, and more!